Dimock, SD (57331)

10:28 AM CDT on September 28, 2016 (GMT -0500)
West Walnut Street | | Change Station

Elev 1404 ft 43.39 °N, 97.99 °W | Updated 5 minutes ago

Overcast
Overcast
49.8 °F
Feels Like 50 °F
N
1.2
Wind Variable Wind from WNW
Gusts 2.5 mph

Today
High -- | Low -- °F
--% Chance of Precip.
Yesterday
High -- | Low -- °F
Precip. -- in
Pressure 30.26 in
Visibility 10.0 miles
Clouds Overcast 1400 ft
Windchill 50 °F
Dew Point 44 °F
Humidity 81%
Rainfall 0.07 in
Snow Depth Not available.
7:26 AM 7:17 PM
Waning Crescent, 5% visible
METAR KMHE 281453Z AUTO 36006KT 10SM OVC014 10/07 A3025 RMK AO2 SLP247 T01000067 53027
Pressure 30.26 in
Visibility 10.0 miles
Clouds Overcast 1400 ft
Windchill 50 °F
Dew Point 44 °F
Humidity 81%
Rainfall 0.07 in
Snow Depth Not available.
7:26 AM 7:17 PM
Waning Crescent, 5% visible
METAR KMHE 281453Z AUTO 36006KT 10SM OVC014 10/07 A3025 RMK AO2 SLP247 T01000067 53027

10-Day Weather Forecast

Almanac

Astronomy

Sep. 28, 2016 Rise Set
Actual Time
Civil Twilight
Nautical Twilight
Astronomical Twilight
Moon
Length of Visible Light
Length of Day
Tomorrow will be .
, % of the Moon is Illuminated

Today's Extremes

State Highs State Lows

Community

WunderPhotos

Upload Photos

1,942,279 photos uploaded!

WunderBlog® & News

Nearby

Air Quality

  Air Quality AQ Index Pollutant
Not available.

Snow Depth

Station Depth Elevation

Earthquake Activity

City Distance Mag. Time & Date
Minimum magnitude displayed is 2.5.

Coastal Water Temperatures

Place Temperature

Stations

Nearby Weather Stations

Station Location Temp. Windchill Dew Point Humidity Wind Precip. Elev Updated Type
                   

Watches & Warnings

There are currently no watches in effect.